Time,TemperatureF,DewpointF,PressureIn,WindDirection,WindDirectionDegrees,WindSpeedMPH,WindSpeedGustMPH,Humidity,HourlyPrecipIn,Conditions,Clouds,dailyrainin,SolarRadiationWatts/m^2,SoftwareType,DateUTC
2013-09-19 04:00:00,63.0,61.0,-100.00,SSW,202,4.0,-999.0,94,-99.99,,,-99.99,0.000000,,2013-09-19 08:00:00,
2013-09-19 04:42:00,63.0,61.0,-100.00,SSW,202,4.0,-999.0,94,-99.99,,,-99.99,0.000000,,2013-09-19 08:42:00,
2013-09-19 04:52:00,63.0,61.0,-100.00,SSW,202,4.0,-999.0,94,-99.99,,,-99.99,0.000000,,2013-09-19 08:52:00,
2013-09-19 06:00:00,64.0,62.0,-100.00,South,180,5.0,-999.0,94,-99.99,,,-99.99,0.000000,,2013-09-19 10:00:00,
2013-09-19 06:43:00,64.0,62.0,-100.00,South,180,5.0,-999.0,94,-99.99,,,-99.99,0.000000,,2013-09-19 10:43:00,
2013-09-19 06:52:00,64.0,62.0,-100.00,South,180,5.0,-999.0,94,-99.99,,,-99.99,0.000000,,2013-09-19 10:52:00,
2013-09-19 07:00:00,64.0,62.0,-100.00,South,180,5.0,-999.0,93,-99.99,,,-99.99,0.000000,,2013-09-19 11:00:00,
2013-09-19 07:42:00,64.0,62.0,-100.00,South,180,5.0,-999.0,93,-99.99,,,-99.99,0.000000,,2013-09-19 11:42:00,
2013-09-19 07:53:00,64.0,62.0,-100.00,South,180,5.0,-999.0,93,-99.99,,,-99.99,0.000000,,2013-09-19 11:53:00,
2013-09-19 08:00:00,64.0,63.0,-100.00,South,180,5.0,-999.0,94,-99.99,,,-99.99,5.800000,,2013-09-19 12:00:00,
2013-09-19 08:43:00,64.0,63.0,-100.00,South,180,5.0,-999.0,94,-99.99,,,-99.99,5.800000,,2013-09-19 12:43:00,
2013-09-19 08:52:00,64.0,63.0,-100.00,South,180,5.0,-999.0,94,-99.99,,,-99.99,5.800000,,2013-09-19 12:52:00,
2013-09-19 09:00:00,64.0,63.0,-100.00,South,180,6.0,-999.0,95,-99.99,,,-99.99,19.719999,,2013-09-19 13:00:00,
2013-09-19 09:43:00,64.0,63.0,-100.00,South,180,6.0,-999.0,95,-99.99,,,-99.99,19.719999,,2013-09-19 13:43:00,
2013-09-19 09:52:00,64.0,63.0,-100.00,South,180,6.0,-999.0,95,-99.99,,,-99.99,19.719999,,2013-09-19 13:52:00,
2013-09-19 10:00:00,65.0,63.0,-100.00,South,180,5.0,-999.0,96,-99.99,,,-99.99,37.119999,,2013-09-19 14:00:00,
2013-09-19 10:42:00,65.0,63.0,-100.00,South,180,5.0,-999.0,96,-99.99,,,-99.99,37.119999,,2013-09-19 14:42:00,
2013-09-19 10:52:00,65.0,63.0,-100.00,South,180,5.0,-999.0,96,-99.99,,,-99.99,37.119999,,2013-09-19 14:52:00,
2013-09-19 12:00:00,66.0,65.0,-100.00,South,180,6.0,-999.0,96,-99.99,,,-99.99,112.519997,,2013-09-19 16:00:00,
2013-09-19 12:43:00,66.0,65.0,-100.00,South,180,6.0,-999.0,96,-99.99,,,-99.99,112.519997,,2013-09-19 16:43:00,
2013-09-19 12:53:00,66.0,65.0,-100.00,South,180,6.0,-999.0,96,-99.99,,,-99.99,112.519997,,2013-09-19 16:53:00,
2013-09-19 14:00:00,67.0,65.0,-100.00,SSW,202,7.0,-999.0,95,-99.99,,,-99.99,190.240005,,2013-09-19 18:00:00,
2013-09-19 14:42:00,67.0,65.0,-100.00,SSW,202,7.0,-999.0,95,-99.99,,,-99.99,190.240005,,2013-09-19 18:42:00,
2013-09-19 14:52:00,67.0,65.0,-100.00,SSW,202,7.0,-999.0,95,-99.99,,,-99.99,190.240005,,2013-09-19 18:52:00,
2013-09-19 16:00:00,71.0,67.0,-100.00,South,180,6.0,-999.0,87,-99.99,,,-99.99,287.679993,,2013-09-19 20:00:00,
2013-09-19 16:42:00,71.0,67.0,-100.00,South,180,6.0,-999.0,87,-99.99,,,-99.99,287.679993,,2013-09-19 20:42:00,
2013-09-19 16:52:00,71.0,67.0,-100.00,South,180,6.0,-999.0,87,-99.99,,,-99.99,287.679993,,2013-09-19 20:52:00,
2013-09-19 17:00:00,71.0,67.0,-100.00,South,180,7.0,-999.0,85,-99.99,,,-99.99,162.399994,,2013-09-19 21:00:00,
2013-09-19 17:44:00,71.0,67.0,-100.00,South,180,7.0,-999.0,85,-99.99,,,-99.99,162.399994,,2013-09-19 21:44:00,
2013-09-19 17:55:00,71.0,67.0,-100.00,South,180,7.0,-999.0,85,-99.99,,,-99.99,162.399994,,2013-09-19 21:55:00,
2013-09-19 20:00:00,67.0,65.0,-100.00,SSE,157,5.0,-999.0,93,0.15,,,-99.99,2.320000,,2013-09-20 00:00:00,
2013-09-19 20:42:00,67.0,65.0,-100.00,SSE,157,5.0,-999.0,93,0.15,,,-99.99,2.320000,,2013-09-20 00:42:00,
2013-09-19 20:52:00,67.0,65.0,-100.00,SSE,157,5.0,-999.0,93,0.15,,,-99.99,2.320000,,2013-09-20 00:52:00,
2013-09-19 22:00:00,66.0,65.0,-100.00,South,180,6.0,-999.0,96,-99.99,,,-99.99,0.000000,,2013-09-20 02:00:00,
2013-09-19 22:42:00,66.0,65.0,-100.00,South,180,6.0,-999.0,96,-99.99,,,-99.99,0.000000,,2013-09-20 02:42:00,
2013-09-19 22:53:00,66.0,65.0,-100.00,South,180,6.0,-999.0,96,-99.99,,,-99.99,0.000000,,2013-09-20 02:53:00,